»·PEaware :: N2070M KDEN-KAMA

N2070M :: KDEN-KAMA

FLIGHT INFORMATION

Flight Status: Arrived
Operator: Privately registered:
United States
More flights under this callsign
Pilot: Andrew M. (139)
Aircraft: CESSNA 208 CARAVAN
(C208)
More flights by this aircraft type
Origin: KDEN Denver Intl
United States
Destination: KAMA Amarillo Intl
United States
More flights between these airports :: More routes between these airports
Route: +PIKES2 PUB J17 PNH
File this flight plan on PilotEdge
Remarks:
Altitude:
(Current/Filed)
20,000ft
Speed:
(Current/Filed)
195kts
Departed: 18-Oct-20 01:43 PM
Arrived: 18-Oct-20 03:31 PM
Distance/Time
Traveled:
312nm/1:48
Distance/Time
To Go:
Arrived

Flight Plot

Page will automatically refresh every two minutes.

Flight plan parsing failed; only flown route is shown


Map Options




Map Legend


Flown Route
Filed Route
Departure Airport
Arrival Airport
Navaid (VOR, NDB)
Fix

Horizontal Profiles

Position Reports

Time Latitude Longitude Heading Altitude Ground
Speed
18-Oct-20 13:18 39.831123 -104.674189 358 5388ft 0kts
18-Oct-20 13:19 39.831123 -104.674189 358 5388ft 0kts
18-Oct-20 13:20 39.831123 -104.674189 358 5388ft 0kts
18-Oct-20 13:21 39.831123 -104.674189 358 5388ft 0kts
18-Oct-20 13:22 39.831123 -104.674189 358 5388ft 0kts
18-Oct-20 13:23 39.831123 -104.674189 358 5388ft 0kts
18-Oct-20 13:24 39.831123 -104.674189 358 5388ft 0kts
18-Oct-20 13:25 39.831123 -104.674189 359 5388ft 0kts
18-Oct-20 13:26 39.831104 -104.673940 183 5388ft 0kts
18-Oct-20 13:27 39.831104 -104.673940 183 5388ft 0kts
18-Oct-20 13:28 39.831104 -104.673940 183 5388ft 0kts
18-Oct-20 13:29 39.831104 -104.673940 183 5388ft 0kts
18-Oct-20 13:30 39.831104 -104.673940 183 5388ft 0kts
18-Oct-20 13:30 39.830023 -104.672717 131 5390ft 12kts
18-Oct-20 13:32 39.829368 -104.666744 90 5414ft 13kts
18-Oct-20 13:32 39.829332 -104.663287 87 5437ft 8kts
18-Oct-20 13:33 39.833416 -104.662642 0 5430ft 19kts
18-Oct-20 13:34 39.838814 -104.662590 1 5422ft 17kts
18-Oct-20 13:35 39.844965 -104.662522 0 5412ft 24kts
18-Oct-20 13:36 39.851551 -104.662430 0 5397ft 23kts
18-Oct-20 13:37 39.857787 -104.662351 0 5393ft 24kts
18-Oct-20 13:38 39.861015 -104.661973 80 5386ft 0kts
18-Oct-20 13:39 39.861031 -104.661827 82 5386ft 0kts
18-Oct-20 13:40 39.861031 -104.661825 81 5386ft 0kts
18-Oct-20 13:41 39.859622 -104.660177 180 5392ft 34kts
18-Oct-20 13:42 39.835768 -104.660556 180 5635ft 112kts
18-Oct-20 13:43 39.827174 -104.633237 70 6609ft 103kts
18-Oct-20 13:44 39.834131 -104.596272 97 7572ft 113kts
18-Oct-20 13:45 39.805637 -104.584263 169 8577ft 121kts
18-Oct-20 13:46 39.772079 -104.579630 178 9626ft 120kts
18-Oct-20 13:47 39.738082 -104.577516 175 10603ft 123kts
18-Oct-20 13:48 39.702359 -104.574415 176 11592ft 119kts
18-Oct-20 13:49 39.669408 -104.564679 166 12494ft 128kts
18-Oct-20 13:50 39.633286 -104.550538 166 13278ft 141kts
18-Oct-20 13:51 39.594814 -104.534037 166 14076ft 149kts
18-Oct-20 13:52 39.554252 -104.523448 176 14892ft 150kts
18-Oct-20 13:53 39.512580 -104.513317 176 15706ft 153kts
18-Oct-20 13:54 39.470330 -104.502056 176 16478ft 155kts
18-Oct-20 13:55 39.428201 -104.489810 176 17269ft 155kts
18-Oct-20 13:56 39.386189 -104.476469 176 18069ft 155kts
18-Oct-20 13:57 39.344464 -104.462065 176 18897ft 156kts
18-Oct-20 13:58 39.302494 -104.446611 176 19723ft 157kts
18-Oct-20 13:59 39.258028 -104.435965 186 20098ft 177kts
18-Oct-20 14:00 39.205190 -104.430223 186 20058ft 201kts
18-Oct-20 14:01 39.149165 -104.425449 186 20060ft 202kts
18-Oct-20 14:02 39.091862 -104.421493 186 20045ft 207kts
18-Oct-20 14:03 39.035058 -104.418170 186 20046ft 204kts
18-Oct-20 14:04 38.978125 -104.415042 186 20049ft 205kts
18-Oct-20 14:05 38.920899 -104.400456 183 20049ft 208kts
18-Oct-20 14:06 38.863941 -104.401470 192 20050ft 204kts
18-Oct-20 14:07 38.807020 -104.404385 191 20068ft 203kts
18-Oct-20 14:08 38.755935 -104.406922 196 21016ft 170kts
18-Oct-20 14:09 38.710202 -104.409156 198 21790ft 160kts
18-Oct-20 14:10 38.665954 -104.411310 199 22488ft 157kts
18-Oct-20 14:11 38.620404 -104.413549 199 22995ft 168kts
18-Oct-20 14:12 38.572810 -104.415862 199 23475ft 173kts
18-Oct-20 14:13 38.524230 -104.418245 199 23973ft 175kts
18-Oct-20 14:14 38.475662 -104.420614 199 24473ft 174kts
18-Oct-20 14:15 38.427057 -104.422979 199 24976ft 174kts
18-Oct-20 14:16 38.376048 -104.425476 197 25079ft 193kts
18-Oct-20 14:17 38.320461 -104.428154 197 25075ft 202kts
18-Oct-20 14:18 38.266108 -104.406549 153 25103ft 232kts
18-Oct-20 14:19 38.211281 -104.362035 156 25082ft 233kts
18-Oct-20 14:20 38.156495 -104.317464 156 25083ft 233kts
18-Oct-20 14:21 38.101608 -104.273025 155 25078ft 232kts
18-Oct-20 14:22 38.047304 -104.229125 156 25076ft 230kts
18-Oct-20 14:23 37.993265 -104.185494 156 25074ft 230kts
18-Oct-20 14:24 37.939237 -104.141968 156 25069ft 230kts
18-Oct-20 14:25 37.885306 -104.098582 156 25067ft 229kts
18-Oct-20 14:26 37.831632 -104.055505 156 25068ft 229kts
18-Oct-20 14:27 37.777749 -104.012293 156 25061ft 228kts
18-Oct-20 14:28 37.723935 -103.969243 156 25064ft 228kts
18-Oct-20 14:29 37.670171 -103.926297 156 25067ft 229kts
18-Oct-20 14:30 37.616510 -103.883509 156 25065ft 228kts
18-Oct-20 14:31 37.562829 -103.840788 156 25057ft 227kts
18-Oct-20 14:32 37.509468 -103.798391 156 25058ft 227kts
18-Oct-20 14:33 37.455914 -103.755913 156 25059ft 228kts
18-Oct-20 14:34 37.401789 -103.713025 156 25052ft 229kts
18-Oct-20 14:35 37.348194 -103.670682 156 25068ft 226kts
18-Oct-20 14:36 37.295518 -103.629104 156 25037ft 221kts
18-Oct-20 14:37 37.243790 -103.586137 149 25046ft 226kts
18-Oct-20 14:38 37.193976 -103.537174 149 25044ft 227kts
18-Oct-20 14:39 37.143955 -103.488824 149 25037ft 226kts
18-Oct-20 14:40 37.093925 -103.440433 149 25035ft 226kts
18-Oct-20 14:41 37.044162 -103.392384 149 25038ft 225kts
18-Oct-20 14:42 36.994540 -103.344562 149 25041ft 225kts
18-Oct-20 14:43 36.944693 -103.296624 149 25024ft 225kts
18-Oct-20 14:44 36.894270 -103.248099 149 24350ft 224kts
18-Oct-20 14:45 36.845016 -103.200915 149 23752ft 220kts
18-Oct-20 14:46 36.796197 -103.154229 148 23066ft 223kts
18-Oct-20 14:47 36.746803 -103.106940 148 22218ft 223kts
18-Oct-20 14:48 36.697642 -103.060579 148 21330ft 219kts
18-Oct-20 14:49 36.649276 -103.015077 148 20436ft 216kts
18-Oct-20 14:50 36.601423 -102.970112 147 19537ft 214kts
18-Oct-20 14:51 36.554001 -102.925656 146 18638ft 214kts
18-Oct-20 14:52 36.506479 -102.881155 146 17727ft 212kts
18-Oct-20 14:53 36.459789 -102.837511 145 17025ft 210kts
18-Oct-20 14:54 36.412847 -102.793662 145 16320ft 211kts
18-Oct-20 14:55 36.365612 -102.749672 144 15622ft 212kts
18-Oct-20 14:56 36.318596 -102.705918 144 14920ft 210kts
18-Oct-20 14:57 36.272601 -102.663171 142 14218ft 203kts
18-Oct-20 14:58 36.227588 -102.621424 141 13521ft 202kts
18-Oct-20 14:59 36.182385 -102.579544 141 12820ft 203kts
18-Oct-20 15:00 36.136712 -102.537292 142 12119ft 207kts
18-Oct-20 15:01 36.090173 -102.494309 142 11418ft 210kts
18-Oct-20 15:02 36.043826 -102.451570 142 11085ft 202kts
18-Oct-20 15:03 35.998515 -102.409859 142 11002ft 202kts
18-Oct-20 15:04 35.953291 -102.368257 142 10992ft 202kts
18-Oct-20 15:05 35.908119 -102.326780 142 10996ft 202kts
18-Oct-20 15:07 35.862918 -102.285355 142 10990ft 202kts
18-Oct-20 15:08 35.817709 -102.243951 142 10991ft 202kts
18-Oct-20 15:09 35.772429 -102.202569 142 10982ft 202kts
18-Oct-20 15:10 35.727134 -102.161222 142 10979ft 202kts
18-Oct-20 15:11 35.681835 -102.119925 142 10997ft 202kts
18-Oct-20 15:12 35.636419 -102.078588 142 10993ft 203kts
18-Oct-20 15:13 35.590885 -102.037197 142 10983ft 202kts
18-Oct-20 15:14 35.545541 -101.996062 142 10975ft 202kts
18-Oct-20 15:15 35.498890 -101.958414 170 10854ft 205kts
18-Oct-20 15:16 35.440232 -101.946802 173 10044ft 217kts
18-Oct-20 15:17 35.380176 -101.943270 183 9256ft 215kts
18-Oct-20 15:18 35.320858 -101.943274 183 8460ft 211kts
18-Oct-20 15:19 35.262359 -101.943304 183 7654ft 208kts
18-Oct-20 15:20 35.206354 -101.944179 182 6860ft 192kts
18-Oct-20 15:21 35.154229 -101.945667 182 6103ft 182kts
18-Oct-20 15:22 35.106150 -101.946826 183 6000ft 166kts
18-Oct-20 15:23 35.060223 -101.947706 183 5998ft 164kts
18-Oct-20 15:24 35.055889 -101.916517 26 6012ft 164kts
18-Oct-20 15:24 35.083258 -101.885939 44 6002ft 157kts
18-Oct-20 15:26 35.117842 -101.842279 43 5999ft 147kts
18-Oct-20 15:27 35.145137 -101.808033 43 5343ft 128kts
18-Oct-20 15:27 35.163961 -101.784501 41 4726ft 101kts
18-Oct-20 15:29 35.186046 -101.756654 43 4180ft 96kts
18-Oct-20 15:30 35.204521 -101.733369 42 3675ft 91kts
18-Oct-20 15:30 35.213424 -101.721752 107 3608ft 16kts
18-Oct-20 15:31 35.213414 -101.717032 47 3609ft 24kts
18-Oct-20 15:32 35.214022 -101.714505 132 3615ft 0kts
18-Oct-20 15:33 35.214022 -101.714505 132 3615ft 0kts
18-Oct-20 15:34 35.214022 -101.714505 132 3615ft 0kts
18-Oct-20 15:35 35.214022 -101.714505 132 3615ft 0kts
18-Oct-20 15:36 35.214022 -101.714505 132 3615ft 0kts
18-Oct-20 15:37 35.214022 -101.714505 132 3615ft 0kts
18-Oct-20 15:38 35.214022 -101.714505 132 3615ft 0kts
18-Oct-20 15:39 35.214022 -101.714505 132 3615ft 0kts
18-Oct-20 15:40 35.214022 -101.714505 132 3615ft 0kts
18-Oct-20 15:41 35.214022 -101.714505 132 3615ft 0kts
18-Oct-20 15:42 35.214022 -101.714505 132 3615ft 0kts
18-Oct-20 15:43 35.214018 -101.714501 131 3615ft 0kts
18-Oct-20 15:44 35.214018 -101.714501 131 3615ft 0kts

Navigation Log

Ident Type
Flight plan parsing failed, navigation log unavailable